Time;durP1;ratioP1;P1;durP2;ratioP2;P2;SDS_P1;SDS_P2;PMS_P1;PMS_P2;Temp;Humidity;BMP_temperature;BMP_pressure;BME280_temperature;BME280_humidity;BME280_pressure;Samples;Min_cycle;Max_cycle;Signal;HPM_P1;HPM_P2
2022/04/10 00:00:09;;;;;;;6.13;3.20;;;6.60;60.60;;;;;;5063661;28;20385;-48
2022/04/10 00:02:42;;;;;;;7.93;3.05;;;6.60;60.70;;;;;;5067794;28;20059;-48
2022/04/10 00:05:11;;;;;;;4.65;3.55;;;6.60;60.90;;;;;;5068920;28;20048;-48
2022/04/10 00:07:41;;;;;;;6.57;3.05;;;6.60;60.70;;;;;;5068729;28;20519;-48
2022/04/10 00:10:12;;;;;;;8.93;2.85;;;6.60;60.80;;;;;;5055795;28;20040;-48
2022/04/10 00:12:41;;;;;;;5.35;3.17;;;6.60;60.80;;;;;;5069210;28;20076;-48
2022/04/10 00:15:11;;;;;;;3.10;2.15;;;6.60;60.80;;;;;;5074292;28;20041;-48
2022/04/10 00:17:38;;;;;;;6.32;2.85;;;6.60;60.80;;;;;;5081155;28;20044;-47
2022/04/10 00:20:12;;;;;;;5.72;2.97;;;6.60;60.90;;;;;;5066178;28;20514;-49
2022/04/10 00:22:48;;;;;;;4.55;2.55;;;6.50;60.80;;;;;;5072731;28;20119;-47
2022/04/10 00:25:19;;;;;;;3.47;2.78;;;6.60;61.00;;;;;;5050834;28;20412;-47
2022/04/10 00:27:46;;;;;;;5.47;3.00;;;6.60;60.90;;;;;;5052796;28;20118;-48
2022/04/10 00:30:15;;;;;;;3.20;2.50;;;6.50;60.90;;;;;;5066064;28;20056;-48
2022/04/10 00:32:43;;;;;;;6.28;2.83;;;6.50;60.90;;;;;;5066108;28;20508;-48
2022/04/10 00:35:16;;;;;;;6.03;3.17;;;6.50;60.90;;;;;;5053596;22;20052;-50
2022/04/10 00:37:44;;;;;;;8.40;3.05;;;6.50;61.00;;;;;;5026934;28;20590;-51
2022/04/10 00:40:11;;;;;;;4.70;2.75;;;6.50;60.90;;;;;;5032194;28;20053;-49
2022/04/10 00:42:49;;;;;;;6.50;2.73;;;6.50;61.00;;;;;;5052496;28;20037;-49
2022/04/10 00:45:20;;;;;;;7.22;3.30;;;6.50;61.20;;;;;;5037222;28;20096;-51
2022/04/10 00:47:48;;;;;;;5.63;3.22;;;6.40;60.90;;;;;;5044515;28;20057;-49
2022/04/10 00:50:18;;;;;;;9.35;3.28;;;6.40;60.90;;;;;;5034118;28;20053;-49
2022/04/10 00:52:49;;;;;;;3.60;3.13;;;6.40;61.10;;;;;;5034162;28;20584;-49
2022/04/10 00:55:19;;;;;;;5.95;2.70;;;6.40;61.00;;;;;;5045211;28;20046;-52
2022/04/10 00:57:49;;;;;;;;;;;6.40;61.10;;;;;;5048387;28;20047;-50
2022/04/10 01:00:18;;;;;;;6.88;2.72;;;6.50;61.60;;;;;;5047246;28;19924;-49
2022/04/10 01:02:48;;;;;;;4.88;2.67;;;6.40;60.40;;;;;;5037218;28;20044;-49
2022/04/10 01:05:19;;;;;;;6.60;3.28;;;6.30;60.50;;;;;;5054012;28;20045;-52
2022/04/10 01:07:46;;;;;;;5.70;3.40;;;6.30;60.80;;;;;;5030245;28;20041;-50
2022/04/10 01:10:15;;;;;;;4.03;2.85;;;6.30;60.70;;;;;;5034447;28;20067;-51
2022/04/10 01:12:46;;;;;;;6.90;3.13;;;6.20;60.70;;;;;;5037955;28;20049;-50
2022/04/10 01:15:22;;;;;;;8.68;3.70;;;6.20;60.80;;;;;;5029206;28;20045;-49
2022/04/10 01:17:53;;;;;;;4.28;3.00;;;6.20;61.10;;;;;;5028624;28;20037;-49
2022/04/10 01:20:24;;;;;;;3.47;3.17;;;6.20;61.20;;;;;;5037350;28;20044;-51
2022/04/10 01:23:00;;;;;;;4.88;2.78;;;6.10;61.10;;;;;;5036532;28;20137;-49
2022/04/10 01:25:32;;;;;;;5.68;3.20;;;6.10;61.00;;;;;;5032374;28;20099;-50
2022/04/10 01:28:10;;;;;;;6.43;3.67;;;6.10;61.10;;;;;;5027204;28;20052;-52
2022/04/10 01:30:37;;;;;;;8.55;3.53;;;6.00;61.50;;;;;;5028734;28;20150;-50
2022/04/10 01:33:05;;;;;;;7.28;3.72;;;6.00;61.30;;;;;;5070049;28;20102;-49
2022/04/10 01:35:32;;;;;;;9.88;3.72;;;6.00;61.60;;;;;;5030300;28;20069;-50
2022/04/10 01:38:01;;;;;;;6.43;3.65;;;6.00;61.90;;;;;;5034765;28;20045;-51
2022/04/10 01:40:35;;;;;;;6.20;3.67;;;5.90;62.10;;;;;;5033993;28;20045;-50
2022/04/10 01:43:07;;;;;;;5.65;3.65;;;5.90;62.10;;;;;;5034050;28;20136;-49
2022/04/10 01:45:38;;;;;;;5.82;3.55;;;5.90;62.30;;;;;;5019171;28;20057;-49
2022/04/10 01:48:07;;;;;;;5.68;4.45;;;5.90;62.30;;;;;;5048396;28;20135;-49
2022/04/10 01:50:40;;;;;;;6.78;3.78;;;6.00;62.30;;;;;;5033252;28;20550;-51
2022/04/10 01:53:07;;;;;;;6.88;3.58;;;6.00;62.30;;;;;;5026006;28;20092;-50
2022/04/10 01:55:35;;;;;;;8.63;3.95;;;6.00;62.80;;;;;;5035552;28;20106;-49
2022/04/10 01:58:02;;;;;;;6.65;3.60;;;6.00;62.30;;;;;;5034861;28;20068;-48
2022/04/10 02:00:30;;;;;;;5.68;4.10;;;6.00;62.30;;;;;;5031551;28;20416;-49
2022/04/10 02:02:56;;;;;;;6.07;3.13;;;6.00;62.30;;;;;;5046995;28;20041;-49
2022/04/10 02:05:23;;;;;;;6.05;4.13;;;6.00;62.40;;;;;;5061789;28;20044;-49
2022/04/10 02:07:50;;;;;;;6.50;4.07;;;6.00;62.50;;;;;;5052443;28;20041;-52
2022/04/10 02:10:17;;;;;;;5.13;4.03;;;6.00;62.60;;;;;;5028070;28;20052;-49
2022/04/10 02:12:47;;;;;;;7.78;4.13;;;6.00;62.60;;;;;;5031608;28;20068;-53
2022/04/10 02:15:17;;;;;;;6.55;4.13;;;6.00;62.70;;;;;;5035812;28;20059;-53
2022/04/10 02:17:44;;;;;;;9.35;4.88;;;6.00;62.90;;;;;;5024291;28;20456;-53
2022/04/10 02:20:10;;;;;;;7.65;4.03;;;6.00;62.80;;;;;;5049186;28;20053;-52
2022/04/10 02:22:37;;;;;;;6.35;4.25;;;6.10;62.80;;;;;;5032798;28;20463;-53
2022/04/10 02:25:07;;;;;;;8.10;3.88;;;6.10;62.80;;;;;;5032065;28;20053;-53
2022/04/10 02:27:34;;;;;;;7.75;3.65;;;6.10;62.80;;;;;;5027514;28;20438;-52
2022/04/10 02:30:00;;;;;;;7.60;3.72;;;6.10;62.80;;;;;;5058407;28;20049;-54
2022/04/10 02:32:30;;;;;;;6.68;4.32;;;6.10;62.80;;;;;;5031336;28;20508;-50
2022/04/10 02:35:00;;;;;;;5.28;3.58;;;6.10;62.90;;;;;;5031331;28;20051;-53
2022/04/10 02:37:29;;;;;;;9.05;3.65;;;6.10;63.00;;;;;;5050482;28;20036;-50
2022/04/10 02:39:56;;;;;;;5.20;3.15;;;6.10;63.10;;;;;;5028866;28;20041;-50
2022/04/10 02:42:27;;;;;;;5.35;3.13;;;6.10;63.10;;;;;;5032166;28;20081;-51
2022/04/10 02:44:55;;;;;;;4.15;3.33;;;6.10;63.20;;;;;;5050254;28;20455;-52
2022/04/10 02:47:22;;;;;;;6.40;4.10;;;6.20;63.20;;;;;;5046508;28;20663;-52
2022/04/10 02:49:50;;;;;;;4.68;3.13;;;6.20;63.30;;;;;;5049223;28;20133;-51
2022/04/10 02:52:19;;;;;;;6.97;3.78;;;6.20;63.40;;;;;;5025075;28;20078;-50
2022/04/10 02:54:47;;;;;;;4.45;3.35;;;6.30;63.40;;;;;;5034937;28;20636;-53
2022/04/10 02:57:13;;;;;;;7.78;3.47;;;6.30;63.40;;;;;;5049864;28;20099;-54
2022/04/10 02:59:41;;;;;;;5.82;3.60;;;6.30;63.40;;;;;;5027641;28;20064;-49
2022/04/10 03:02:08;;;;;;;9.55;3.47;;;6.30;63.40;;;;;;5032788;28;20475;-51
2022/04/10 03:04:35;;;;;;;6.15;3.63;;;6.40;63.40;;;;;;5063904;28;20119;-54
2022/04/10 03:07:04;;;;;;;5.13;3.75;;;6.40;63.40;;;;;;5068628;28;20049;-53
2022/04/10 03:09:31;;;;;;;5.72;3.30;;;6.40;63.40;;;;;;5028298;28;20068;-53
2022/04/10 03:12:03;;;;;;;5.00;3.55;;;6.50;63.40;;;;;;5047319;28;20029;-53
2022/04/10 03:14:38;;;;;;;5.93;3.33;;;6.50;63.40;;;;;;5037843;28;20436;-53
2022/04/10 03:17:05;;;;;;;8.32;3.55;;;6.50;63.40;;;;;;5026797;28;20104;-53
2022/04/10 03:19:32;;;;;;;5.55;3.33;;;6.50;63.10;;;;;;5025183;28;20092;-51
2022/04/10 03:21:58;;;;;;;7.53;3.85;;;6.50;63.10;;;;;;5030577;28;20111;-53
2022/04/10 03:24:25;;;;;;;4.88;3.55;;;6.50;63.00;;;;;;5032225;28;20041;-54
2022/04/10 03:26:52;;;;;;;7.35;3.60;;;6.50;62.90;;;;;;5027506;28;20057;-50
2022/04/10 03:29:20;;;;;;;5.57;3.35;;;6.50;62.90;;;;;;5031912;28;20037;-53
2022/04/10 03:31:47;;;;;;;4.55;3.33;;;6.50;63.40;;;;;;5031583;28;20049;-49
2022/04/10 03:34:15;;;;;;;6.97;3.90;;;6.40;62.80;;;;;;5030226;28;20508;-54
2022/04/10 03:36:42;;;;;;;8.50;4.18;;;6.40;62.80;;;;;;5024429;28;20076;-51
2022/04/10 03:39:15;;;;;;;6.85;3.92;;;6.40;62.90;;;;;;5031551;28;20522;-49
2022/04/10 03:41:42;;;;;;;9.38;3.13;;;6.30;62.90;;;;;;5034810;28;20047;-53
2022/04/10 03:44:09;;;;;;;5.45;3.47;;;6.30;63.00;;;;;;5049447;28;20040;-51
2022/04/10 03:46:38;;;;;;;4.75;3.72;;;6.30;63.10;;;;;;5029734;28;20103;-49
2022/04/10 03:49:08;;;;;;;7.32;3.75;;;6.30;63.10;;;;;;5034690;28;20071;-53
2022/04/10 03:51:35;;;;;;;6.63;3.97;;;6.20;63.10;;;;;;5035787;28;20051;-54
2022/04/10 03:54:09;;;;;;;6.73;3.93;;;6.20;63.10;;;;;;5073681;28;20076;-49
2022/04/10 03:56:36;;;;;;;5.82;3.55;;;6.20;63.20;;;;;;5030376;28;20353;-54
2022/04/10 03:59:09;;;;;;;8.38;3.58;;;6.10;63.10;;;;;;5053353;28;20041;-54
2022/04/10 04:01:36;;;;;;;4.85;3.67;;;6.10;63.20;;;;;;5035399;28;20043;-54
2022/04/10 04:04:06;;;;;;;6.15;3.90;;;6.10;63.10;;;;;;5033852;28;20045;-52
2022/04/10 04:06:38;;;;;;;10.73;4.43;;;6.00;63.00;;;;;;5048068;28;20095;-50
2022/04/10 04:09:08;;;;;;;6.63;3.53;;;6.00;63.00;;;;;;5053939;28;20106;-51
2022/04/10 04:11:36;;;;;;;9.20;3.63;;;5.90;62.80;;;;;;5034381;28;20064;-52
2022/04/10 04:14:04;;;;;;;7.35;4.25;;;5.90;62.80;;;;;;5034983;28;20520;-52
2022/04/10 04:16:33;;;;;;;6.90;3.33;;;5.80;62.80;;;;;;5046981;28;20043;-53
2022/04/10 04:19:00;;;;;;;7.43;3.63;;;5.80;62.70;;;;;;5029023;28;20490;-52
2022/04/10 04:21:38;;;;;;;6.28;4.03;;;5.70;62.70;;;;;;5048043;28;20086;-53
2022/04/10 04:24:10;;;;;;;7.28;3.83;;;5.70;62.80;;;;;;5030964;28;20044;-52
2022/04/10 04:26:38;;;;;;;6.47;3.92;;;5.70;63.30;;;;;;5031151;28;20063;-50
2022/04/10 04:29:07;;;;;;;6.60;4.10;;;5.60;63.40;;;;;;5034881;28;20601;-52
2022/04/10 04:31:36;;;;;;;6.35;3.90;;;5.60;63.70;;;;;;5033059;28;20412;-53
2022/04/10 04:34:07;;;;;;;6.20;3.80;;;5.50;63.90;;;;;;5032135;28;20059;-51
2022/04/10 04:36:33;;;;;;;10.55;4.88;;;5.50;64.20;;;;;;5033475;28;20068;-49
2022/04/10 04:39:03;;;;;;;7.05;4.60;;;5.50;64.40;;;;;;5034996;28;20045;-51
2022/04/10 04:41:30;;;;;;;7.07;4.10;;;5.50;64.50;;;;;;5032356;28;20049;-50
2022/04/10 04:44:01;;;;;;;7.03;4.00;;;5.50;64.60;;;;;;5050629;28;20493;-55
2022/04/10 04:46:30;;;;;;;6.25;3.92;;;5.50;64.60;;;;;;5031731;28;20048;-50
2022/04/10 04:48:59;;;;;;;6.35;4.03;;;5.50;64.70;;;;;;5035389;28;20075;-52
2022/04/10 04:51:30;;;;;;;7.75;4.60;;;5.50;64.80;;;;;;5049263;28;20037;-55
2022/04/10 04:54:01;;;;;;;7.03;4.55;;;5.50;64.90;;;;;;5035284;28;20566;-49
2022/04/10 04:56:28;;;;;;;6.95;4.30;;;5.50;65.00;;;;;;5031473;28;20052;-51
2022/04/10 04:58:57;;;;;;;5.40;4.25;;;5.50;64.90;;;;;;5032423;28;20042;-51
2022/04/10 05:01:25;;;;;;;7.07;4.93;;;5.50;65.00;;;;;;5031938;28;20223;-50
2022/04/10 05:03:53;;;;;;;8.57;5.43;;;5.50;65.10;;;;;;5037984;28;20048;-50
2022/04/10 05:06:20;;;;;;;12.27;7.05;;;5.50;65.00;;;;;;5064395;28;20032;-54
2022/04/10 05:08:47;;;;;;;8.40;5.97;;;5.50;65.00;;;;;;5051370;28;20412;-52
2022/04/10 05:11:27;;;;;;;;;;;;;;;;;;;;;
2022/04/10 05:13:55;;;;;;;9.93;6.07;;;5.50;65.10;;;;;;5037571;28;20041;-51
2022/04/10 05:16:26;;;;;;;11.35;6.25;;;5.50;65.00;;;;;;5032484;28;20052;-49
2022/04/10 05:18:57;;;;;;;7.45;5.00;;;5.50;65.00;;;;;;5032292;28;20048;-53
2022/04/10 05:21:28;;;;;;;8.88;4.90;;;5.50;64.90;;;;;;5038094;28;20041;-53
2022/04/10 05:24:00;;;;;;;7.53;4.60;;;5.50;65.00;;;;;;5064020;28;20052;-52
2022/04/10 05:26:29;;;;;;;5.63;5.00;;;5.50;65.00;;;;;;5053825;28;20556;-53
2022/04/10 05:28:59;;;;;;;5.95;4.95;;;5.50;65.00;;;;;;5037374;28;20561;-53
2022/04/10 05:31:32;;;;;;;8.40;5.10;;;5.50;65.00;;;;;;5039116;28;20140;-51
2022/04/10 05:34:07;;;;;;;8.45;5.72;;;5.50;65.00;;;;;;5032667;28;20512;-54
2022/04/10 05:36:36;;;;;;;5.40;4.50;;;5.50;65.00;;;;;;5034958;28;20053;-55
2022/04/10 05:39:04;;;;;;;7.30;5.05;;;5.50;64.90;;;;;;5029084;28;20398;-54
2022/04/10 05:41:32;;;;;;;5.93;4.13;;;5.50;64.90;;;;;;5038228;28;20051;-51
2022/04/10 05:44:04;;;;;;;6.63;4.03;;;5.50;64.90;;;;;;5033903;28;20524;-54
2022/04/10 05:46:32;;;;;;;5.05;4.50;;;5.50;65.00;;;;;;5049350;28;20040;-50
2022/04/10 05:49:02;;;;;;;11.32;4.57;;;5.50;65.10;;;;;;5030082;28;20430;-53
2022/04/10 05:51:29;;;;;;;4.82;3.90;;;5.50;65.20;;;;;;5028462;28;20110;-50
2022/04/10 05:54:02;;;;;;;7.20;4.22;;;5.50;65.20;;;;;;5050727;28;20040;-53
2022/04/10 05:56:34;;;;;;;6.03;4.50;;;5.50;65.40;;;;;;5030219;28;20413;-50
2022/04/10 05:59:04;;;;;;;5.65;3.92;;;5.50;65.40;;;;;;5050263;28;20103;-53
2022/04/10 06:01:37;;;;;;;6.82;4.10;;;5.60;65.80;;;;;;5039655;28;20098;-53
2022/04/10 06:04:06;;;;;;;7.50;4.63;;;5.60;65.90;;;;;;5051880;28;20116;-54
2022/04/10 06:06:36;;;;;;;5.05;4.22;;;5.60;66.10;;;;;;5033988;28;20045;-52
2022/04/10 06:09:11;;;;;;;7.90;4.03;;;5.70;66.20;;;;;;5033067;28;20044;-52
2022/04/10 06:11:37;;;;;;;8.68;5.45;;;5.70;66.30;;;;;;5051431;28;20037;-50
2022/04/10 06:14:04;;;;;;;7.85;4.72;;;5.80;66.50;;;;;;5041830;28;20033;-52
2022/04/10 06:16:32;;;;;;;7.95;4.30;;;5.80;66.70;;;;;;5047064;28;20090;-54
2022/04/10 06:19:00;;;;;;;8.32;4.90;;;5.90;66.80;;;;;;5029059;28;20048;-53
2022/04/10 06:21:32;;;;;;;;;;;5.90;66.70;;;;;;5034503;28;20049;-50
2022/04/10 06:24:00;;;;;;;8.52;4.88;;;6.10;67.60;;;;;;5033506;28;19950;-54
2022/04/10 06:26:32;;;;;;;;;;;6.10;66.20;;;;;;5030354;28;20557;-49
2022/04/10 06:29:00;;;;;;;9.48;5.30;;;6.20;67.20;;;;;;5034298;28;20007;-50
2022/04/10 06:31:36;;;;;;;9.30;5.55;;;6.30;66.10;;;;;;5053620;28;20044;-54
2022/04/10 06:34:12;;;;;;;9.07;5.93;;;6.40;66.40;;;;;;5032990;28;20049;-54
2022/04/10 06:36:41;;;;;;;8.63;5.72;;;6.40;66.60;;;;;;5028129;28;20111;-52
2022/04/10 06:39:16;;;;;;;;;;;6.50;66.80;;;;;;5033847;28;20427;-50
2022/04/10 06:41:47;;;;;;;8.80;5.30;;;6.60;67.60;;;;;;5053258;28;20018;-52
2022/04/10 06:44:33;;;;;;;9.80;6.78;;;6.70;66.50;;;;;;5055599;28;20051;-54
2022/04/10 06:47:11;;;;;;;8.40;6.35;;;6.70;66.60;;;;;;5033852;28;20447;-50
2022/04/10 06:49:39;;;;;;;10.80;6.47;;;6.80;66.90;;;;;;5053080;28;20052;-53
2022/04/10 06:52:07;;;;;;;7.57;6.13;;;6.90;67.10;;;;;;5036273;28;20041;-54
2022/04/10 06:54:41;;;;;;;10.95;6.75;;;6.90;67.00;;;;;;5013759;28;20052;-54
2022/04/10 06:57:09;;;;;;;11.13;7.68;;;7.00;67.10;;;;;;5031795;28;20460;-55
2022/04/10 06:59:38;;;;;;;7.68;6.55;;;7.10;67.20;;;;;;5051022;28;20041;-55
2022/04/10 07:02:08;;;;;;;10.73;7.20;;;7.10;67.10;;;;;;5026846;28;20049;-55
2022/04/10 07:04:37;;;;;;;9.93;7.20;;;7.20;67.20;;;;;;5034068;28;20144;-56
2022/04/10 07:07:08;;;;;;;13.70;8.05;;;7.30;67.20;;;;;;5026045;28;20103;-58
2022/04/10 07:09:42;;;;;;;12.20;8.15;;;7.40;67.10;;;;;;5023866;28;20045;-57
2022/04/10 07:12:09;;;;;;;11.50;7.03;;;7.40;66.90;;;;;;5041632;28;20079;-58
2022/04/10 07:14:41;;;;;;;10.20;7.53;;;7.50;66.80;;;;;;5028428;28;20049;-55
2022/04/10 07:17:08;;;;;;;10.68;6.57;;;7.50;66.80;;;;;;5027831;28;20080;-55
2022/04/10 07:19:35;;;;;;;9.00;6.93;;;7.60;66.60;;;;;;5018471;28;20067;-57
2022/04/10 07:24:53;;;;;;;9.38;6.40;;;7.80;66.70;;;;;;5036379;28;20044;-57
2022/04/10 07:27:20;;;;;;;9.52;6.97;;;7.80;66.40;;;;;;5018877;28;20740;-58
2022/04/10 07:29:58;;;;;;;10.98;7.15;;;7.90;66.40;;;;;;5027656;28;20044;-58
2022/04/10 07:32:30;;;;;;;14.13;6.25;;;7.90;66.40;;;;;;5033999;28;20147;-57
2022/04/10 07:35:04;;;;;;;9.50;6.78;;;8.00;66.30;;;;;;5034983;28;20095;-58
2022/04/10 07:37:48;;;;;;;8.40;6.05;;;8.10;66.30;;;;;;5037645;28;20122;-56
2022/04/10 07:40:16;;;;;;;10.27;6.68;;;8.20;66.30;;;;;;5020145;28;20094;-57
2022/04/10 07:42:44;;;;;;;10.18;7.20;;;8.20;66.20;;;;;;5028900;28;20068;-57
2022/04/10 07:48:12;;;;;;;9.88;5.47;;;8.40;66.00;;;;;;5023306;28;20091;-56
2022/04/10 07:50:40;;;;;;;8.32;5.45;;;8.50;65.60;;;;;;5013124;28;20544;-57
2022/04/10 07:53:10;;;;;;;6.38;5.25;;;8.50;65.20;;;;;;5018758;28;20063;-56
2022/04/10 07:55:46;;;;;;;6.95;5.38;;;8.60;65.20;;;;;;5014579;28;20497;-58
2022/04/10 07:58:13;;;;;;;7.40;4.68;;;8.70;65.20;;;;;;5030004;28;20490;-57
2022/04/10 08:00:42;;;;;;;9.30;5.53;;;8.80;65.20;;;;;;5028232;28;20034;-54
2022/04/10 08:03:09;;;;;;;7.97;4.80;;;8.80;64.70;;;;;;5018960;28;20068;-57
2022/04/10 08:05:55;;;;;;;7.45;4.53;;;8.90;64.30;;;;;;5031092;28;20138;-57
2022/04/10 08:08:31;;;;;;;9.65;5.10;;;9.00;64.00;;;;;;5034237;28;20143;-56
2022/04/10 08:10:57;;;;;;;7.57;5.57;;;9.10;63.90;;;;;;5028375;28;20125;-56
2022/04/10 08:13:25;;;;;;;8.13;4.75;;;9.10;64.10;;;;;;5035542;28;20121;-56
2022/04/10 08:15:51;;;;;;;7.10;4.70;;;9.20;64.00;;;;;;5026933;28;20490;-57
2022/04/10 08:18:18;;;;;;;7.20;5.32;;;9.20;63.60;;;;;;5052086;28;20767;-57
2022/04/10 08:20:45;;;;;;;7.00;4.28;;;9.30;63.40;;;;;;5037774;28;20462;-57
2022/04/10 08:23:11;;;;;;;7.55;4.93;;;9.40;63.60;;;;;;5031538;28;20394;-58
2022/04/10 08:25:38;;;;;;;8.05;4.55;;;9.50;63.40;;;;;;5026636;28;20042;-58
2022/04/10 08:28:07;;;;;;;5.65;4.25;;;9.60;62.90;;;;;;5042244;28;20040;-56
2022/04/10 08:30:34;;;;;;;6.82;4.07;;;9.70;63.00;;;;;;5043351;28;20244;-57
2022/04/10 08:33:01;;;;;;;6.60;3.38;;;9.80;62.70;;;;;;5033244;28;20053;-56
2022/04/10 08:35:28;;;;;;;5.50;3.03;;;9.80;61.90;;;;;;5033201;28;20054;-56
2022/04/10 08:38:00;;;;;;;4.80;3.38;;;9.90;62.00;;;;;;5039977;28;20045;-57
2022/04/10 08:40:30;;;;;;;7.30;3.83;;;10.10;61.80;;;;;;5042303;28;20494;-57
2022/04/10 08:43:02;;;;;;;6.78;3.38;;;10.20;61.10;;;;;;5042956;28;20037;-57
2022/04/10 08:45:29;;;;;;;4.93;2.90;;;10.20;61.20;;;;;;5037150;28;20050;-56
2022/04/10 08:47:56;;;;;;;5.47;2.75;;;10.30;60.70;;;;;;5049067;28;20059;-57
2022/04/10 08:50:26;;;;;;;5.97;2.75;;;10.30;60.30;;;;;;5034573;28;20049;-57
2022/04/10 08:52:58;;;;;;;5.95;3.10;;;10.40;60.10;;;;;;5037432;28;20457;-57
2022/04/10 08:55:25;;;;;;;4.90;2.70;;;10.50;59.60;;;;;;5035850;28;20045;-56
2022/04/10 08:57:53;;;;;;;4.35;2.35;;;10.60;59.50;;;;;;5037243;28;20045;-44
2022/04/10 09:00:22;;;;;;;4.80;2.13;;;10.70;59.70;;;;;;5045341;28;20095;-46
2022/04/10 09:02:51;;;;;;;2.95;2.05;;;10.80;58.50;;;;;;5036239;28;20087;-43
2022/04/10 09:05:22;;;;;;;5.90;2.35;;;10.90;58.00;;;;;;5031774;28;20037;-53
2022/04/10 09:08:09;;;;;;;5.38;1.95;;;11.00;57.90;;;;;;5039313;28;20032;-49
2022/04/10 09:10:55;;;;;;;3.08;1.95;;;11.10;56.40;;;;;;5029982;28;20085;-49
2022/04/10 09:13:30;;;;;;;2.75;1.73;;;11.10;55.80;;;;;;5033871;28;20038;-49
2022/04/10 09:16:17;;;;;;;2.38;1.77;;;11.20;56.70;;;;;;5024689;28;20049;-49
2022/04/10 09:18:50;;;;;;;5.32;1.90;;;11.20;54.90;;;;;;5041161;28;20112;-47
2022/04/10 09:21:28;;;;;;;3.00;1.50;;;11.30;55.50;;;;;;5028263;28;20037;-47
2022/04/10 09:24:01;;;;;;;4.13;1.67;;;11.30;53.80;;;;;;5040423;28;20481;-47
2022/04/10 09:26:43;;;;;;;4.38;1.60;;;11.40;54.50;;;;;;5035938;28;20037;-50
2022/04/10 09:29:10;;;;;;;3.05;1.50;;;11.40;53.50;;;;;;5049058;28;20045;-48
2022/04/10 09:31:37;;;;;;;2.13;1.20;;;11.50;54.40;;;;;;5034014;28;20064;-48
2022/04/10 09:34:09;;;;;;;3.58;1.48;;;11.50;54.50;;;;;;5054005;28;20768;-48
2022/04/10 09:36:44;;;;;;;1.73;1.42;;;11.60;54.00;;;;;;5029555;28;20052;-52
2022/04/10 09:39:16;;;;;;;3.45;1.83;;;11.70;54.00;;;;;;5033072;28;20061;-50
2022/04/10 09:41:47;;;;;;;2.22;1.55;;;11.70;53.30;;;;;;5028160;28;20057;-49
2022/04/10 09:44:17;;;;;;;3.03;1.73;;;11.90;53.20;;;;;;5055151;28;20037;-47
2022/04/10 09:46:56;;;;;;;3.55;1.67;;;11.90;52.40;;;;;;5032575;28;20460;-48
2022/04/10 09:49:23;;;;;;;3.00;1.30;;;12.00;52.00;;;;;;5030351;28;20053;-49
2022/04/10 09:52:02;;;;;;;1.48;1.10;;;12.00;52.20;;;;;;5023582;28;20125;-48
2022/04/10 09:54:38;;;;;;;1.70;1.30;;;12.10;51.70;;;;;;5052425;28;20056;-48
2022/04/10 09:57:10;;;;;;;3.33;1.08;;;12.20;52.50;;;;;;5024726;28;20440;-50
2022/04/10 09:59:45;;;;;;;2.38;1.52;;;12.20;52.50;;;;;;5044599;28;20051;-51
2022/04/10 10:02:15;;;;;;;1.35;1.10;;;12.30;52.00;;;;;;5032582;28;20037;-50
2022/04/10 10:04:43;;;;;;;2.38;1.50;;;12.40;51.70;;;;;;5052732;28;20112;-48
2022/04/10 10:07:17;;;;;;;4.22;2.00;;;12.40;51.20;;;;;;5025620;28;20041;-50
2022/04/10 10:09:46;;;;;;;3.95;1.98;;;12.40;50.70;;;;;;5040841;28;20091;-49
2022/04/10 10:12:16;;;;;;;4.43;1.75;;;12.50;51.00;;;;;;5024225;28;20057;-51
2022/04/10 10:14:44;;;;;;;4.38;1.50;;;12.50;51.10;;;;;;5046844;28;20059;-48
2022/04/10 10:17:10;;;;;;;2.15;1.13;;;12.50;51.00;;;;;;5023677;28;20193;-52
2022/04/10 10:19:41;;;;;;;2.50;1.58;;;12.60;51.10;;;;;;5024039;28;20591;-48
2022/04/10 10:22:15;;;;;;;3.35;1.55;;;12.60;50.30;;;;;;5028000;28;20068;-50
2022/04/10 10:24:52;;;;;;;2.20;1.30;;;12.60;50.30;;;;;;5044386;28;20496;-51
2022/04/10 10:27:56;;;;;;;3.30;1.40;;;12.60;50.10;;;;;;5027879;28;20552;-50
2022/04/10 10:30:32;;;;;;;4.75;1.42;;;12.50;49.20;;;;;;5043393;28;20625;-48
2022/04/10 10:33:18;;;;;;;2.83;1.67;;;12.50;49.60;;;;;;5038086;28;20044;-50
2022/04/10 10:35:50;;;;;;;3.42;2.00;;;12.50;50.00;;;;;;5031299;28;20528;-47
2022/04/10 10:38:29;;;;;;;2.00;1.52;;;12.40;50.80;;;;;;5044570;28;20496;-49
2022/04/10 10:41:16;;;;;;;3.10;1.80;;;12.40;50.40;;;;;;5034156;28;20041;-48
2022/04/10 10:43:43;;;;;;;4.10;1.95;;;12.30;50.50;;;;;;5044778;28;20614;-48
2022/04/10 10:46:20;;;;;;;7.38;1.70;;;12.30;51.70;;;;;;5028730;28;20033;-49
2022/04/10 10:49:10;;;;;;;4.63;1.63;;;12.30;51.30;;;;;;5041762;28;20056;-48
2022/04/10 10:51:38;;;;;;;6.68;1.95;;;12.30;51.30;;;;;;5023597;28;20052;-47
2022/04/10 10:54:11;;;;;;;4.13;1.70;;;12.40;51.70;;;;;;5043874;28;20041;-48
2022/04/10 10:56:42;;;;;;;3.10;1.85;;;12.50;52.40;;;;;;5027068;28;20049;-48
2022/04/10 10:59:35;;;;;;;2.90;1.60;;;12.50;51.90;;;;;;5040515;28;20036;-49
2022/04/10 11:02:16;;;;;;;5.53;1.83;;;12.60;50.70;;;;;;5031549;28;20473;-47
2022/04/10 11:05:07;;;;;;;3.15;1.55;;;12.70;50.50;;;;;;5044874;28;20080;-48
2022/04/10 11:07:39;;;;;;;3.75;1.92;;;12.80;50.60;;;;;;5029416;28;20095;-48
2022/04/10 11:10:11;;;;;;;5.80;2.25;;;12.80;51.40;;;;;;5061823;28;20049;-50
2022/04/10 11:12:52;;;;;;;4.72;2.10;;;12.90;50.60;;;;;;5027840;28;20049;-51
2022/04/10 11:15:22;;;;;;;4.35;1.88;;;13.00;50.00;;;;;;5036589;28;20053;-48
2022/04/10 11:17:51;;;;;;;3.20;1.90;;;13.00;50.80;;;;;;5037015;28;20429;-48
2022/04/10 11:20:24;;;;;;;2.33;1.73;;;13.10;50.50;;;;;;5039438;28;20060;-50
2022/04/10 11:22:53;;;;;;;8.35;1.98;;;13.20;50.00;;;;;;5037848;28;20052;-48
2022/04/10 11:25:38;;;;;;;4.53;1.63;;;13.20;50.30;;;;;;5035327;28;20033;-50
2022/04/10 11:28:07;;;;;;;2.08;1.55;;;13.30;49.50;;;;;;5034440;28;20037;-53
2022/04/10 11:30:39;;;;;;;5.78;2.20;;;13.40;50.40;;;;;;5031744;28;20053;-56
2022/04/10 11:33:09;;;;;;;2.38;1.90;;;13.50;50.50;;;;;;5034808;28;20137;-56
2022/04/10 11:35:44;;;;;;;4.07;1.70;;;13.50;49.60;;;;;;5032400;28;21617;-54
2022/04/10 11:38:13;;;;;;;2.40;2.10;;;13.60;49.10;;;;;;5043290;28;20045;-58
2022/04/10 11:40:41;;;;;;;5.82;1.73;;;13.60;48.20;;;;;;5047814;28;20075;-56
2022/04/10 11:43:09;;;;;;;3.90;1.85;;;13.60;48.30;;;;;;5031443;28;20068;-55
2022/04/10 11:45:36;;;;;;;3.85;1.70;;;13.60;48.30;;;;;;5035818;28;20098;-55
2022/04/10 11:48:05;;;;;;;1.92;1.48;;;13.60;48.70;;;;;;5019717;28;20053;-55
2022/04/10 11:50:32;;;;;;;2.97;1.23;;;13.60;48.40;;;;;;5032785;28;20102;-56
2022/04/10 11:53:03;;;;;;;2.67;1.20;;;13.50;47.10;;;;;;5040694;28;20657;-54
2022/04/10 11:55:33;;;;;;;3.63;1.10;;;13.50;47.60;;;;;;5029110;28;20033;-56
2022/04/10 11:58:21;;;;;;;1.63;1.15;;;13.50;47.30;;;;;;5036352;28;20045;-58
2022/04/10 12:00:59;;;;;;;1.30;0.90;;;13.50;47.40;;;;;;5030848;28;20061;-57
2022/04/10 12:03:29;;;;;;;2.08;1.08;;;13.50;45.70;;;;;;5038247;28;20411;-57
2022/04/10 12:05:57;;;;;;;1.50;1.20;;;13.50;46.00;;;;;;5033227;28;20041;-56
2022/04/10 12:08:24;;;;;;;3.63;1.17;;;13.60;46.90;;;;;;5040726;28;20087;-55
2022/04/10 12:10:53;;;;;;;2.83;1.25;;;13.60;46.30;;;;;;5033697;28;20880;-57
2022/04/10 12:13:21;;;;;;;1.58;1.08;;;13.70;46.60;;;;;;5044973;28;20052;-56
2022/04/10 12:15:58;;;;;;;3.55;1.65;;;13.70;46.20;;;;;;5031037;28;20080;-56
2022/04/10 12:18:25;;;;;;;5.43;1.35;;;13.80;45.20;;;;;;5039662;28;20596;-56
2022/04/10 12:21:01;;;;;;;2.15;1.80;;;13.90;46.90;;;;;;5039525;28;20124;-57
2022/04/10 12:23:28;;;;;;;3.47;1.42;;;14.00;46.50;;;;;;5022398;28;20131;-56
2022/04/10 12:25:57;;;;;;;2.08;1.40;;;14.00;46.00;;;;;;5033535;28;20072;-56
2022/04/10 12:28:25;;;;;;;1.45;1.02;;;14.00;45.60;;;;;;5041447;28;20124;-56
2022/04/10 12:30:53;;;;;;;3.28;1.63;;;14.10;45.10;;;;;;5018308;28;20476;-57
2022/04/10 12:33:21;;;;;;;2.63;1.40;;;14.10;45.30;;;;;;5047603;28;20036;-57
2022/04/10 12:35:48;;;;;;;2.28;1.40;;;14.00;45.60;;;;;;5041467;28;20037;-56
2022/04/10 12:38:17;;;;;;;1.90;1.40;;;14.00;45.40;;;;;;5035551;28;20061;-57
2022/04/10 12:40:45;;;;;;;5.30;1.67;;;14.00;45.10;;;;;;5025586;28;20857;-58
2022/04/10 12:43:12;;;;;;;2.95;1.80;;;13.90;45.70;;;;;;5030259;28;20099;-57
2022/04/10 12:45:41;;;;;;;2.90;1.40;;;13.80;44.50;;;;;;5043052;28;20333;-54
2022/04/10 12:48:26;;;;;;;3.00;1.10;;;13.80;45.00;;;;;;5040007;28;20111;-57
2022/04/10 12:51:09;;;;;;;1.88;1.58;;;13.80;44.90;;;;;;5031684;28;20038;-56
2022/04/10 12:53:36;;;;;;;3.55;1.52;;;13.80;43.70;;;;;;5050920;28;20041;-58
2022/04/10 12:56:05;;;;;;;2.25;1.20;;;13.80;45.30;;;;;;5046383;28;20041;-57
2022/04/10 12:58:48;;;;;;;2.72;1.58;;;13.90;44.60;;;;;;5051378;28;20039;-55
2022/04/10 13:01:28;;;;;;;1.10;1.00;;;14.10;43.20;;;;;;5039536;28;20493;-58
2022/04/10 13:03:56;;;;;;;1.35;1.00;;;14.30;43.80;;;;;;5043254;28;20435;-57
2022/04/10 13:06:44;;;;;;;1.38;1.17;;;14.40;44.60;;;;;;5028721;28;20037;-57
2022/04/10 13:09:12;;;;;;;2.78;1.60;;;14.60;44.50;;;;;;5042238;28;20120;-56
2022/04/10 13:11:39;;;;;;;1.00;0.90;;;14.80;43.90;;;;;;5032732;28;20111;-57
2022/04/10 13:14:08;;;;;;;1.38;1.23;;;14.90;43.80;;;;;;5038806;28;20120;-56
2022/04/10 13:16:36;;;;;;;3.20;1.13;;;15.10;43.40;;;;;;5032338;28;20052;-56
2022/04/10 13:19:17;;;;;;;2.55;1.52;;;15.10;42.60;;;;;;5043495;28;20505;-56